Time;durP1;ratioP1;P1;durP2;ratioP2;P2;SDS_P1;SDS_P2;PMS_P1;PMS_P2;Temp;Humidity;BMP_temperature;BMP_pressure;BME280_temperature;BME280_humidity;BME280_pressure;Samples;Min_cycle;Max_cycle;Signal;HPM_P1;HPM_P2
2023/04/25 00:01:09;;;;;;;2.95;1.45;;;;;;;;;;5054186;28;20021;-57
2023/04/25 00:03:35;;;;;;;4.38;1.40;;;;;;;;;;5053205;28;20033;-58
2023/04/25 00:06:04;;;;;;;2.13;1.45;;;;;;;;;;5053932;28;20120;-58
2023/04/25 00:08:30;;;;;;;7.03;1.58;;;;;;;;;;5053387;28;20043;-58
2023/04/25 00:10:57;;;;;;;2.25;0.95;;;;;;;;;;5053889;28;20029;-56
2023/04/25 00:13:25;;;;;;;1.65;1.02;;;;;;;;;;5053304;28;20056;-57
2023/04/25 00:15:51;;;;;;;1.90;1.02;;;;;;;;;;5053166;28;20136;-56
2023/04/25 00:18:17;;;;;;;1.80;1.13;;;;;;;;;;5053971;28;20021;-58
2023/04/25 00:20:46;;;;;;;2.17;1.42;;;;;;;;;;5053239;28;20021;-58
2023/04/25 00:23:12;;;;;;;1.95;1.10;;;;;;;;;;5051819;28;20124;-57
2023/04/25 00:25:38;;;;;;;2.00;1.17;;;;;;;;;;5053812;28;20036;-56
2023/04/25 00:28:04;;;;;;;2.85;1.65;;;;;;;;;;5053647;28;20021;-57
2023/04/25 00:30:30;;;;;;;4.35;1.65;;;;;;;;;;5052828;28;20598;-58
2023/04/25 00:32:56;;;;;;;2.38;1.40;;;;;;;;;;5053404;28;20036;-58
2023/04/25 00:35:22;;;;;;;2.03;1.20;;;;;;;;;;5052697;28;20082;-58
2023/04/25 00:37:48;;;;;;;2.47;1.70;;;;;;;;;;5052771;28;20029;-57
2023/04/25 00:40:14;;;;;;;2.28;1.25;;;;;;;;;;5053297;28;20044;-58
2023/04/25 00:42:40;;;;;;;2.63;1.35;;;;;;;;;;5053098;28;20024;-58
2023/04/25 00:45:07;;;;;;;2.55;1.52;;;;;;;;;;5052802;28;20386;-56
2023/04/25 00:47:34;;;;;;;2.20;1.20;;;;;;;;;;5053270;28;20437;-56
2023/04/25 00:50:00;;;;;;;1.83;1.30;;;;;;;;;;5053667;28;20021;-57
2023/04/25 00:52:26;;;;;;;3.20;1.33;;;;;;;;;;5053175;28;20029;-57
2023/04/25 00:54:52;;;;;;;2.67;1.75;;;;;;;;;;5054094;28;20116;-58
2023/04/25 00:57:18;;;;;;;2.95;2.00;;;;;;;;;;5056985;28;20370;-58
2023/04/25 00:59:48;;;;;;;3.47;1.60;;;;;;;;;;5056795;28;20033;-58
2023/04/25 01:02:14;;;;;;;2.72;1.55;;;;;;;;;;5057044;28;20119;-57
2023/04/25 01:04:40;;;;;;;2.40;1.63;;;;;;;;;;5056617;28;20033;-58
2023/04/25 01:07:06;;;;;;;2.25;1.55;;;;;;;;;;5056515;28;20025;-58
2023/04/25 01:09:32;;;;;;;2.22;1.65;;;;;;;;;;5054933;28;20013;-58
2023/04/25 01:11:58;;;;;;;2.65;1.70;;;;;;;;;;5056532;28;20029;-58
2023/04/25 01:14:24;;;;;;;2.28;1.45;;;;;;;;;;5056733;28;20049;-58
2023/04/25 01:16:50;;;;;;;3.08;1.90;;;;;;;;;;5056408;28;20112;-57
2023/04/25 01:19:18;;;;;;;3.45;2.10;;;;;;;;;;5056537;28;20037;-57
2023/04/25 01:21:45;;;;;;;1.90;1.30;;;;;;;;;;5057033;28;20075;-58
2023/04/25 01:24:11;;;;;;;4.35;2.00;;;;;;;;;;5056904;28;20054;-58
2023/04/25 01:26:37;;;;;;;2.95;1.73;;;;;;;;;;5056504;28;20063;-58
2023/04/25 01:29:04;;;;;;;3.63;1.90;;;;;;;;;;5056100;28;20064;-57
2023/04/25 01:31:30;;;;;;;3.75;1.85;;;;;;;;;;5056031;28;20085;-58
2023/04/25 01:33:56;;;;;;;3.50;2.35;;;;;;;;;;5056358;28;20033;-58
2023/04/25 01:36:26;;;;;;;4.25;2.10;;;;;;;;;;5054746;28;20035;-58
2023/04/25 01:38:52;;;;;;;2.17;1.35;;;;;;;;;;5055925;28;20459;-58
2023/04/25 01:41:19;;;;;;;3.08;2.30;;;;;;;;;;5055578;28;20021;-57
2023/04/25 01:43:46;;;;;;;2.80;2.05;;;;;;;;;;5055797;28;20071;-58
2023/04/25 01:46:12;;;;;;;3.53;2.25;;;;;;;;;;5055559;28;20366;-57
2023/04/25 01:48:38;;;;;;;3.15;2.22;;;;;;;;;;5056346;28;20320;-58
2023/04/25 01:51:04;;;;;;;4.53;1.73;;;;;;;;;;5055432;28;20036;-58
2023/04/25 01:53:30;;;;;;;3.17;1.92;;;;;;;;;;5055654;28;20411;-57
2023/04/25 01:55:56;;;;;;;2.85;1.77;;;;;;;;;;5056261;28;20033;-56
2023/04/25 01:58:22;;;;;;;3.15;2.30;;;;;;;;;;5055848;28;20107;-57
2023/04/25 02:00:48;;;;;;;5.07;2.03;;;;;;;;;;5055520;28;20031;-57
2023/04/25 02:03:14;;;;;;;2.55;1.75;;;;;;;;;;5055698;28;20398;-57
2023/04/25 02:05:40;;;;;;;3.88;1.83;;;;;;;;;;5055417;28;20033;-58
2023/04/25 02:08:07;;;;;;;2.67;1.75;;;;;;;;;;5055416;28;20465;-57
2023/04/25 02:10:33;;;;;;;3.75;1.80;;;;;;;;;;5055353;28;20410;-58
2023/04/25 02:12:59;;;;;;;4.32;2.13;;;;;;;;;;5055286;28;20029;-57
2023/04/25 02:15:25;;;;;;;2.60;1.92;;;;;;;;;;5054753;28;20068;-57
2023/04/25 02:17:54;;;;;;;2.65;1.80;;;;;;;;;;5055093;28;20033;-58
2023/04/25 02:20:23;;;;;;;3.03;1.48;;;;;;;;;;5055194;28;20056;-58
2023/04/25 02:22:49;;;;;;;2.55;1.33;;;;;;;;;;5055573;28;20341;-56
2023/04/25 02:25:16;;;;;;;3.15;1.65;;;;;;;;;;5055789;28;20056;-57
2023/04/25 02:27:42;;;;;;;2.40;1.40;;;;;;;;;;5055513;28;20032;-58
2023/04/25 02:30:08;;;;;;;4.38;2.00;;;;;;;;;;5055453;28;20029;-57
2023/04/25 02:32:34;;;;;;;2.03;1.35;;;;;;;;;;5054891;28;20029;-57
2023/04/25 02:35:04;;;;;;;2.10;1.48;;;;;;;;;;5054827;28;20025;-56
2023/04/25 02:37:30;;;;;;;2.65;1.38;;;;;;;;;;5055377;28;20064;-56
2023/04/25 02:39:56;;;;;;;1.40;0.88;;;;;;;;;;5054753;28;20040;-56
2023/04/25 02:42:22;;;;;;;1.52;1.05;;;;;;;;;;5054982;28;20029;-56
2023/04/25 02:44:48;;;;;;;2.47;1.27;;;;;;;;;;5055103;28;20025;-56
2023/04/25 02:47:14;;;;;;;1.98;1.10;;;;;;;;;;5055271;28;20451;-58
2023/04/25 02:49:40;;;;;;;2.78;1.55;;;;;;;;;;5054597;28;20071;-56
2023/04/25 02:52:06;;;;;;;2.83;1.20;;;;;;;;;;5054797;28;20024;-58
2023/04/25 02:54:32;;;;;;;2.47;1.40;;;;;;;;;;5054485;28;20033;-57
2023/04/25 02:56:58;;;;;;;1.98;1.23;;;;;;;;;;5054485;28;20520;-57
2023/04/25 02:59:24;;;;;;;2.67;1.38;;;;;;;;;;5054393;28;20025;-58
2023/04/25 03:01:50;;;;;;;2.78;1.27;;;;;;;;;;5054609;28;20025;-55
2023/04/25 03:04:18;;;;;;;2.10;1.30;;;;;;;;;;5054257;28;20060;-57
2023/04/25 03:06:44;;;;;;;1.95;1.25;;;;;;;;;;5055098;28;20370;-58
2023/04/25 03:09:10;;;;;;;1.60;1.10;;;;;;;;;;5054802;28;20033;-58
2023/04/25 03:11:37;;;;;;;2.05;1.17;;;;;;;;;;5054262;28;20468;-58
2023/04/25 03:14:03;;;;;;;1.58;1.10;;;;;;;;;;5052642;28;20053;-57
2023/04/25 03:16:29;;;;;;;4.05;1.25;;;;;;;;;;5054126;28;20021;-57
2023/04/25 03:18:55;;;;;;;1.92;1.27;;;;;;;;;;5054514;28;20035;-56
2023/04/25 03:21:21;;;;;;;1.92;1.05;;;;;;;;;;5054016;28;20025;-58
2023/04/25 03:23:47;;;;;;;1.60;1.20;;;;;;;;;;5053900;28;20025;-56
2023/04/25 03:26:13;;;;;;;1.92;1.08;;;;;;;;;;5054573;28;20036;-58
2023/04/25 03:28:39;;;;;;;2.20;1.08;;;;;;;;;;5054256;28;20052;-57
2023/04/25 03:31:05;;;;;;;2.35;1.42;;;;;;;;;;5053906;28;20439;-57
2023/04/25 03:33:31;;;;;;;2.25;1.45;;;;;;;;;;5054022;28;20068;-57
2023/04/25 03:35:57;;;;;;;3.42;1.10;;;;;;;;;;5053945;28;20378;-58
2023/04/25 03:38:23;;;;;;;2.72;1.50;;;;;;;;;;5053866;28;20443;-58
2023/04/25 03:40:50;;;;;;;2.50;1.65;;;;;;;;;;5054162;28;20025;-58
2023/04/25 03:43:16;;;;;;;1.95;1.17;;;;;;;;;;5053879;28;20033;-58
2023/04/25 03:45:42;;;;;;;2.92;1.58;;;;;;;;;;5053957;28;20406;-56
2023/04/25 03:48:08;;;;;;;3.65;3.22;;;;;;;;;;5053498;28;20025;-58
2023/04/25 03:50:34;;;;;;;3.42;2.17;;;;;;;;;;5053797;28;20416;-57
2023/04/25 03:53:00;;;;;;;2.30;1.38;;;;;;;;;;5053670;28;20082;-58
2023/04/25 03:55:26;;;;;;;1.55;0.93;;;;;;;;;;5054051;28;20029;-58
2023/04/25 03:57:52;;;;;;;2.45;1.45;;;;;;;;;;5053729;28;20025;-57
2023/04/25 04:00:18;;;;;;;2.28;1.23;;;;;;;;;;5054364;28;20336;-55
2023/04/25 04:02:44;;;;;;;2.70;1.65;;;;;;;;;;5053556;28;20029;-57
2023/04/25 04:05:10;;;;;;;3.00;1.77;;;;;;;;;;5053529;28;20033;-55
2023/04/25 04:07:42;;;;;;;2.97;1.58;;;;;;;;;;5054224;28;20025;-56
2023/04/25 04:10:08;;;;;;;2.22;1.52;;;;;;;;;;5053818;28;20456;-57
2023/04/25 04:12:34;;;;;;;2.80;1.70;;;;;;;;;;5053582;28;20104;-57
2023/04/25 04:15:00;;;;;;;1.90;1.20;;;;;;;;;;5053358;28;20106;-57
2023/04/25 04:17:26;;;;;;;4.43;1.80;;;;;;;;;;5053746;28;20025;-55
2023/04/25 04:19:52;;;;;;;7.30;1.60;;;;;;;;;;5053472;28;20031;-55
2023/04/25 04:22:18;;;;;;;3.83;2.00;;;;;;;;;;5053969;28;20451;-58
2023/04/25 04:24:46;;;;;;;2.17;1.45;;;;;;;;;;5053976;28;20447;-58
2023/04/25 04:27:12;;;;;;;2.67;1.75;;;;;;;;;;5053409;28;20040;-58
2023/04/25 04:29:38;;;;;;;2.55;1.45;;;;;;;;;;5054203;28;20033;-58
2023/04/25 04:32:04;;;;;;;3.08;1.27;;;;;;;;;;5057864;28;20067;-58
2023/04/25 04:34:30;;;;;;;1.98;1.50;;;;;;;;;;5057737;28;20063;-58
2023/04/25 04:36:56;;;;;;;3.10;1.63;;;;;;;;;;5057526;28;20112;-57
2023/04/25 04:39:23;;;;;;;2.65;1.63;;;;;;;;;;5057934;28;20088;-58
2023/04/25 04:41:49;;;;;;;3.42;1.88;;;;;;;;;;5056915;28;20033;-56
2023/04/25 04:44:15;;;;;;;2.78;1.75;;;;;;;;;;5056731;28;20033;-58
2023/04/25 04:46:44;;;;;;;3.33;2.10;;;;;;;;;;5057532;28;20017;-58
2023/04/25 04:49:10;;;;;;;2.88;1.90;;;;;;;;;;5056956;28;20379;-58
2023/04/25 04:51:36;;;;;;;3.95;2.10;;;;;;;;;;5057724;28;20024;-58
2023/04/25 04:54:03;;;;;;;2.83;1.83;;;;;;;;;;5057370;28;20021;-58
2023/04/25 04:56:32;;;;;;;2.88;1.67;;;;;;;;;;5056798;28;20052;-58
2023/04/25 04:58:58;;;;;;;2.50;1.70;;;;;;;;;;5057350;28;20390;-58
2023/04/25 05:01:24;;;;;;;4.65;2.13;;;;;;;;;;5056650;28;20025;-58
2023/04/25 05:03:51;;;;;;;2.15;1.45;;;;;;;;;;5056667;28;20036;-58
2023/04/25 05:06:17;;;;;;;3.03;2.00;;;;;;;;;;5056711;28;20463;-58
2023/04/25 05:08:43;;;;;;;2.30;1.60;;;;;;;;;;5056610;28;20021;-58
2023/04/25 05:11:09;;;;;;;4.00;1.88;;;;;;;;;;5056839;28;20032;-59
2023/04/25 05:13:35;;;;;;;2.70;1.70;;;;;;;;;;5057254;28;20037;-58
2023/04/25 05:16:01;;;;;;;2.80;1.77;;;;;;;;;;5057757;28;20049;-58
2023/04/25 05:18:27;;;;;;;2.30;1.60;;;;;;;;;;5056396;28;20128;-58
2023/04/25 05:20:53;;;;;;;2.22;1.63;;;;;;;;;;5056648;28;20017;-58
2023/04/25 05:23:19;;;;;;;5.03;2.08;;;;;;;;;;5056524;28;20171;-58
2023/04/25 05:25:45;;;;;;;2.70;1.55;;;;;;;;;;5056931;28;20119;-58
2023/04/25 05:28:13;;;;;;;2.78;1.65;;;;;;;;;;5056251;28;20025;-58
2023/04/25 05:30:39;;;;;;;3.72;2.05;;;;;;;;;;5056419;28;20032;-58
2023/04/25 05:33:05;;;;;;;3.13;2.00;;;;;;;;;;5056068;28;20032;-59
2023/04/25 05:35:31;;;;;;;2.60;1.73;;;;;;;;;;5056483;28;20117;-58
2023/04/25 05:37:57;;;;;;;2.97;1.90;;;;;;;;;;5056008;28;20035;-58
2023/04/25 05:40:22;;;;;;;3.95;2.17;;;;;;;;;;5055737;28;20043;-58
2023/04/25 05:42:48;;;;;;;2.65;1.95;;;;;;;;;;5055405;28;20025;-59
2023/04/25 05:45:14;;;;;;;3.90;2.35;;;;;;;;;;5055777;28;20459;-58
2023/04/25 05:47:40;;;;;;;3.92;2.70;;;;;;;;;;5056439;28;20029;-58
2023/04/25 05:50:07;;;;;;;3.60;2.47;;;;;;;;;;5055865;28;20383;-57
2023/04/25 05:52:34;;;;;;;4.15;2.22;;;;;;;;;;5056409;28;20124;-58
2023/04/25 05:55:00;;;;;;;3.00;2.10;;;;;;;;;;5056244;28;20063;-59
2023/04/25 05:57:26;;;;;;;2.78;1.75;;;;;;;;;;5056103;28;20064;-58
2023/04/25 05:59:53;;;;;;;2.80;1.90;;;;;;;;;;5055727;28;20025;-58
2023/04/25 06:02:19;;;;;;;2.58;1.90;;;;;;;;;;5055543;28;20033;-58
2023/04/25 06:04:45;;;;;;;2.70;1.85;;;;;;;;;;5055573;28;20033;-58
2023/04/25 06:07:11;;;;;;;2.85;2.38;;;;;;;;;;5056315;28;20462;-59
2023/04/25 06:09:38;;;;;;;3.15;1.88;;;;;;;;;;5055906;28;20095;-59
2023/04/25 06:12:05;;;;;;;2.67;1.80;;;;;;;;;;5055699;28;20032;-58
2023/04/25 06:14:31;;;;;;;3.60;2.22;;;;;;;;;;5054926;28;20163;-59
2023/04/25 06:16:56;;;;;;;3.25;2.17;;;;;;;;;;5054937;28;20485;-58
2023/04/25 06:19:22;;;;;;;2.63;1.55;;;;;;;;;;5055060;28;20054;-59
2023/04/25 06:21:48;;;;;;;3.60;1.77;;;;;;;;;;5055044;28;20078;-59
2023/04/25 06:24:14;;;;;;;2.80;2.22;;;;;;;;;;5055017;28;20029;-59
2023/04/25 06:26:40;;;;;;;3.50;1.92;;;;;;;;;;5055395;28;20037;-58
2023/04/25 06:29:06;;;;;;;3.33;1.80;;;;;;;;;;5054876;28;20032;-58
2023/04/25 06:31:33;;;;;;;2.65;1.58;;;;;;;;;;5055276;28;20035;-59
2023/04/25 06:33:59;;;;;;;3.83;2.53;;;;;;;;;;5054920;28;20036;-58
2023/04/25 06:36:25;;;;;;;2.90;1.95;;;;;;;;;;5054883;28;20092;-59
2023/04/25 06:38:52;;;;;;;2.45;1.48;;;;;;;;;;5055348;28;20406;-59
2023/04/25 06:41:18;;;;;;;4.13;2.00;;;;;;;;;;5054794;28;20025;-58
2023/04/25 06:43:44;;;;;;;3.83;2.13;;;;;;;;;;5054764;28;20096;-58
2023/04/25 06:46:10;;;;;;;4.85;2.35;;;;;;;;;;5054652;28;20036;-58
2023/04/25 06:48:36;;;;;;;3.08;2.08;;;;;;;;;;5054721;28;20021;-58
2023/04/25 06:51:03;;;;;;;2.55;1.88;;;;;;;;;;5054738;28;20117;-57
2023/04/25 06:53:29;;;;;;;2.60;1.90;;;;;;;;;;5054352;28;20068;-58
2023/04/25 06:55:55;;;;;;;3.40;2.03;;;;;;;;;;5054941;28;20032;-57
2023/04/25 06:58:21;;;;;;;3.72;2.22;;;;;;;;;;5054591;28;20371;-57
2023/04/25 07:00:47;;;;;;;2.90;2.10;;;;;;;;;;5054807;28;20033;-57
2023/04/25 07:03:12;;;;;;;3.45;2.42;;;;;;;;;;5054126;28;20386;-57
2023/04/25 07:05:38;;;;;;;2.88;2.13;;;;;;;;;;5054082;28;20043;-58
2023/04/25 07:08:05;;;;;;;2.92;2.10;;;;;;;;;;5054414;28;20017;-58
2023/04/25 07:10:30;;;;;;;2.75;1.80;;;;;;;;;;5054179;28;20025;-57
2023/04/25 07:12:56;;;;;;;1.95;1.50;;;;;;;;;;5054328;28;20360;-57
2023/04/25 07:15:22;;;;;;;3.13;2.20;;;;;;;;;;5054572;28;20378;-58
2023/04/25 07:17:48;;;;;;;3.08;2.05;;;;;;;;;;5054116;28;20463;-58
2023/04/25 07:20:15;;;;;;;3.67;2.13;;;;;;;;;;5054132;28;20024;-58
2023/04/25 07:22:41;;;;;;;4.25;2.30;;;;;;;;;;5053600;28;20036;-58
2023/04/25 07:25:08;;;;;;;2.60;1.92;;;;;;;;;;5054096;28;20104;-58
2023/04/25 07:27:34;;;;;;;2.83;2.05;;;;;;;;;;5054614;28;20029;-58
2023/04/25 07:30:00;;;;;;;3.85;1.85;;;;;;;;;;5054366;28;20063;-58
2023/04/25 07:32:27;;;;;;;3.00;2.25;;;;;;;;;;5053691;28;20395;-57
2023/04/25 07:34:53;;;;;;;3.75;2.33;;;;;;;;;;5054279;28;20104;-58
2023/04/25 07:37:19;;;;;;;4.95;3.10;;;;;;;;;;5054565;28;20029;-58
2023/04/25 07:39:48;;;;;;;2.50;1.83;;;;;;;;;;5053942;28;20465;-58
2023/04/25 07:42:14;;;;;;;3.58;2.55;;;;;;;;;;5053740;28;20074;-59
2023/04/25 07:44:40;;;;;;;3.30;2.70;;;;;;;;;;5053612;28;20056;-58
2023/04/25 07:47:07;;;;;;;9.00;3.15;;;;;;;;;;5054342;28;20029;-59
2023/04/25 07:49:34;;;;;;;3.25;2.85;;;;;;;;;;5053725;28;20036;-59
2023/04/25 07:52:00;;;;;;;3.53;2.75;;;;;;;;;;5053637;28;20533;-59
2023/04/25 07:54:26;;;;;;;3.83;3.10;;;;;;;;;;5053635;28;20094;-58
2023/04/25 07:56:52;;;;;;;3.90;3.03;;;;;;;;;;5053390;28;20112;-58
2023/04/25 07:59:18;;;;;;;3.65;3.10;;;;;;;;;;5053670;28;20025;-58
2023/04/25 08:01:44;;;;;;;5.05;3.50;;;;;;;;;;5053226;28;20047;-58
2023/04/25 08:04:10;;;;;;;4.32;3.25;;;;;;;;;;5053861;28;20447;-58
2023/04/25 08:06:36;;;;;;;4.63;3.40;;;;;;;;;;5057681;28;20052;-58
2023/04/25 08:09:02;;;;;;;3.90;2.97;;;;;;;;;;5058006;28;20025;-58
2023/04/25 08:11:28;;;;;;;4.25;2.92;;;;;;;;;;5057677;28;20060;-60
2023/04/25 08:13:54;;;;;;;4.60;3.38;;;;;;;;;;5057237;28;20032;-59
2023/04/25 08:16:20;;;;;;;4.70;3.08;;;;;;;;;;5057948;28;20036;-58
2023/04/25 08:18:46;;;;;;;4.30;2.97;;;;;;;;;;5057616;28;20417;-59
2023/04/25 08:21:13;;;;;;;3.85;3.17;;;;;;;;;;5057265;28;20037;-59
2023/04/25 08:23:39;;;;;;;4.88;3.58;;;;;;;;;;5057008;28;20103;-59
2023/04/25 08:26:05;;;;;;;4.25;3.00;;;;;;;;;;5057780;28;20036;-59
2023/04/25 08:28:32;;;;;;;4.35;3.28;;;;;;;;;;5057614;28;20078;-58
2023/04/25 08:30:58;;;;;;;4.15;3.28;;;;;;;;;;5057275;28;20025;-59
2023/04/25 08:33:24;;;;;;;5.00;3.67;;;;;;;;;;5057535;28;20115;-59
2023/04/25 08:35:50;;;;;;;4.22;3.58;;;;;;;;;;5057298;28;20057;-59
2023/04/25 08:38:17;;;;;;;4.85;3.38;;;;;;;;;;5057861;28;20048;-59
2023/04/25 08:40:44;;;;;;;4.78;3.30;;;;;;;;;;5057528;28;20100;-59
2023/04/25 08:43:11;;;;;;;4.20;3.17;;;;;;;;;;5057059;28;20162;-59
2023/04/25 08:45:43;;;;;;;4.57;3.05;;;;;;;;;;5056964;28;20028;-58
2023/04/25 08:48:18;;;;;;;4.05;3.35;;;;;;;;;;5057239;28;20055;-59
2023/04/25 08:50:50;;;;;;;4.03;2.92;;;;;;;;;;5057069;28;20083;-57
2023/04/25 08:53:18;;;;;;;3.88;3.30;;;;;;;;;;5056825;28;20039;-56
2023/04/25 08:55:46;;;;;;;4.43;3.10;;;;;;;;;;5057684;28;20040;-58
2023/04/25 08:58:12;;;;;;;3.97;3.10;;;;;;;;;;5056721;28;20463;-58
2023/04/25 09:00:38;;;;;;;3.40;2.90;;;;;;;;;;5057341;28;20033;-58
2023/04/25 09:03:04;;;;;;;5.78;4.50;;;;;;;;;;5056691;28;20031;-58
2023/04/25 09:05:30;;;;;;;4.43;3.70;;;;;;;;;;5056689;28;20079;-58
2023/04/25 09:07:56;;;;;;;4.05;3.50;;;;;;;;;;5056617;28;20028;-58
2023/04/25 09:10:22;;;;;;;3.97;3.58;;;;;;;;;;5056477;28;20032;-58
2023/04/25 09:13:04;;;;;;;7.03;3.45;;;;;;;;;;5056548;28;20090;-58
2023/04/25 09:15:30;;;;;;;5.78;4.25;;;;;;;;;;5056766;28;20553;-58
2023/04/25 09:17:57;;;;;;;5.60;4.47;;;;;;;;;;5056770;28;20060;-58
2023/04/25 09:20:24;;;;;;;4.75;4.03;;;;;;;;;;5056429;28;20029;-58
2023/04/25 09:22:50;;;;;;;5.82;3.58;;;;;;;;;;5056181;28;20090;-58
2023/04/25 09:25:17;;;;;;;4.43;2.97;;;;;;;;;;5056674;28;20025;-57
2023/04/25 09:27:50;;;;;;;3.80;3.40;;;;;;;;;;5056266;28;20068;-58
2023/04/25 09:30:17;;;;;;;3.78;3.03;;;;;;;;;;5056191;28;20060;-58
2023/04/25 09:32:43;;;;;;;5.22;3.45;;;;;;;;;;5056233;28;20115;-58
2023/04/25 09:35:10;;;;;;;3.78;3.13;;;;;;;;;;5056144;28;20048;-58
2023/04/25 09:37:36;;;;;;;5.43;3.83;;;;;;;;;;5056738;28;20032;-57
2023/04/25 09:40:05;;;;;;;5.50;3.97;;;;;;;;;;5056339;28;20057;-58
2023/04/25 09:42:34;;;;;;;4.80;3.50;;;;;;;;;;5055945;28;20421;-58
2023/04/25 09:45:01;;;;;;;4.97;3.72;;;;;;;;;;5055808;28;20087;-58
2023/04/25 09:47:28;;;;;;;5.10;3.67;;;;;;;;;;5056527;28;20029;-58
2023/04/25 09:49:55;;;;;;;3.78;3.28;;;;;;;;;;5055724;28;20033;-58
2023/04/25 09:52:21;;;;;;;4.40;3.65;;;;;;;;;;5055768;28;20078;-57
2023/04/25 09:54:48;;;;;;;3.92;2.75;;;;;;;;;;5055767;28;20025;-58
2023/04/25 09:57:15;;;;;;;3.35;2.50;;;;;;;;;;5056096;28;20061;-58
2023/04/25 09:59:48;;;;;;;3.88;2.83;;;;;;;;;;5056189;28;20060;-58
2023/04/25 10:02:15;;;;;;;3.67;2.50;;;;;;;;;;5055931;28;20360;-58
2023/04/25 10:04:42;;;;;;;2.80;2.20;;;;;;;;;;5054181;28;20068;-57
2023/04/25 10:07:09;;;;;;;3.30;1.85;;;;;;;;;;5055928;28;20047;-57
2023/04/25 10:09:37;;;;;;;4.78;2.65;;;;;;;;;;5055965;28;20410;-58
2023/04/25 10:12:03;;;;;;;3.45;2.63;;;;;;;;;;5055926;28;20064;-57
2023/04/25 10:14:32;;;;;;;3.40;2.75;;;;;;;;;;5055236;28;20078;-57
2023/04/25 10:16:59;;;;;;;3.63;2.63;;;;;;;;;;5055387;28;20515;-58
2023/04/25 10:19:26;;;;;;;3.60;2.33;;;;;;;;;;5055328;28;20028;-58
2023/04/25 10:21:53;;;;;;;1.95;1.42;;;;;;;;;;5055269;28;20028;-58
2023/04/25 10:24:20;;;;;;;2.92;1.77;;;;;;;;;;5055494;28;20039;-58
2023/04/25 10:26:46;;;;;;;2.22;1.27;;;;;;;;;;5054863;28;20099;-58
2023/04/25 10:29:12;;;;;;;2.17;1.48;;;;;;;;;;5055262;28;20055;-58
2023/04/25 10:31:47;;;;;;;1.92;1.02;;;;;;;;;;5055180;28;20377;-54
2023/04/25 10:34:13;;;;;;;2.17;1.23;;;;;;;;;;5055513;28;20033;-58
2023/04/25 10:36:39;;;;;;;2.22;1.42;;;;;;;;;;5055796;28;20371;-58
2023/04/25 10:39:07;;;;;;;1.90;1.10;;;;;;;;;;5054826;28;20123;-56
2023/04/25 10:41:45;;;;;;;1.50;0.98;;;;;;;;;;5055427;28;20025;-58
2023/04/25 10:44:11;;;;;;;1.42;0.80;;;;;;;;;;5055001;28;20029;-58
2023/04/25 10:46:37;;;;;;;1.23;0.63;;;;;;;;;;5054063;28;20102;-58
2023/04/25 10:49:04;;;;;;;1.70;0.98;;;;;;;;;;5054400;28;20048;-58
2023/04/25 10:51:33;;;;;;;1.35;0.70;;;;;;;;;;5054393;28;20068;-59
2023/04/25 10:53:59;;;;;;;2.08;1.10;;;;;;;;;;5054309;28;20033;-59
2023/04/25 10:56:26;;;;;;;1.50;0.85;;;;;;;;;;5054270;28;20025;-59
2023/04/25 10:58:52;;;;;;;1.08;0.50;;;;;;;;;;5054556;28;20110;-58
2023/04/25 11:01:25;;;;;;;1.50;0.63;;;;;;;;;;5054530;28;20032;-58
2023/04/25 11:03:57;;;;;;;1.65;0.68;;;;;;;;;;5054235;28;20078;-58
2023/04/25 11:06:28;;;;;;;0.82;0.43;;;;;;;;;;5055008;28;20111;-59
2023/04/25 11:08:54;;;;;;;1.85;0.95;;;;;;;;;;5054790;28;20465;-59
2023/04/25 11:11:20;;;;;;;2.25;1.35;;;;;;;;;;5054623;28;20113;-58
2023/04/25 11:13:49;;;;;;;3.13;2.13;;;;;;;;;;5054477;28;20028;-58
2023/04/25 11:16:16;;;;;;;3.13;1.90;;;;;;;;;;5054892;28;20032;-59
2023/04/25 11:18:42;;;;;;;2.85;2.10;;;;;;;;;;5054718;28;20445;-59
2023/04/25 11:21:08;;;;;;;2.30;1.52;;;;;;;;;;5054561;28;20509;-58
2023/04/25 11:23:34;;;;;;;4.03;1.98;;;;;;;;;;5054339;28;20029;-58
2023/04/25 11:26:01;;;;;;;3.55;1.50;;;;;;;;;;5054430;28;20031;-57
2023/04/25 11:28:27;;;;;;;2.33;1.55;;;;;;;;;;5053933;28;20033;-59
2023/04/25 11:30:53;;;;;;;2.83;1.75;;;;;;;;;;5054306;28;20036;-59
2023/04/25 11:33:23;;;;;;;3.05;1.88;;;;;;;;;;5054473;28;20041;-57
2023/04/25 11:35:49;;;;;;;3.20;2.03;;;;;;;;;;5054345;28;20068;-58
2023/04/25 11:38:15;;;;;;;2.85;1.88;;;;;;;;;;5054401;28;20068;-58
2023/04/25 11:40:41;;;;;;;3.00;2.20;;;;;;;;;;5053882;28;20025;-59
2023/04/25 11:43:07;;;;;;;3.17;1.48;;;;;;;;;;5054075;28;20366;-59
2023/04/25 11:45:33;;;;;;;2.90;1.88;;;;;;;;;;5053737;28;20039;-59
2023/04/25 11:47:59;;;;;;;2.72;1.92;;;;;;;;;;5054126;28;20024;-59
2023/04/25 11:50:28;;;;;;;2.70;1.77;;;;;;;;;;5053882;28;20029;-59
2023/04/25 11:52:56;;;;;;;3.00;1.98;;;;;;;;;;5053801;28;20319;-58
2023/04/25 11:55:22;;;;;;;2.80;1.70;;;;;;;;;;5054248;28;20024;-60
2023/04/25 11:57:50;;;;;;;2.88;1.73;;;;;;;;;;5053723;28;20040;-58
2023/04/25 12:00:18;;;;;;;2.75;1.60;;;;;;;;;;5054210;28;20053;-57
2023/04/25 12:02:44;;;;;;;2.95;1.58;;;;;;;;;;5053576;28;20472;-59
2023/04/25 12:05:11;;;;;;;2.50;1.80;;;;;;;;;;5053252;28;20463;-58
2023/04/25 12:07:38;;;;;;;3.83;2.80;;;;;;;;;;5054134;28;20021;-59
2023/04/25 12:10:11;;;;;;;3.15;2.60;;;;;;;;;;5053790;28;20028;-58
2023/04/25 12:12:37;;;;;;;3.08;2.22;;;;;;;;;;5054074;28;20029;-59
2023/04/25 12:15:10;;;;;;;4.32;3.03;;;;;;;;;;5053074;28;20057;-59
2023/04/25 12:17:40;;;;;;;3.20;2.75;;;;;;;;;;5053752;28;20052;-59
2023/04/25 12:20:07;;;;;;;3.83;2.78;;;;;;;;;;5053757;28;20075;-60
2023/04/25 12:22:33;;;;;;;4.57;3.65;;;;;;;;;;5053471;28;20025;-59
2023/04/25 12:24:59;;;;;;;4.43;3.10;;;;;;;;;;5053127;28;20206;-58
2023/04/25 12:27:27;;;;;;;4.68;3.25;;;;;;;;;;5053802;28;20029;-57
2023/04/25 12:29:56;;;;;;;4.85;3.70;;;;;;;;;;5053429;28;20061;-58
2023/04/25 12:32:22;;;;;;;4.05;3.03;;;;;;;;;;5053329;28;20028;-58
2023/04/25 12:34:48;;;;;;;5.10;3.35;;;;;;;;;;5053355;28;20021;-59
2023/04/25 12:37:15;;;;;;;4.03;3.25;;;;;;;;;;5053906;28;20115;-59
2023/04/25 12:39:41;;;;;;;4.30;3.33;;;;;;;;;;5053317;28;20057;-58
2023/04/25 12:42:13;;;;;;;4.13;3.58;;;;;;;;;;5053262;28;20485;-58
2023/04/25 12:44:39;;;;;;;4.57;3.10;;;;;;;;;;5053135;28;20061;-58
2023/04/25 12:47:05;;;;;;;5.25;3.00;;;;;;;;;;5054054;28;20036;-58
2023/04/25 12:49:31;;;;;;;4.32;3.65;;;;;;;;;;5053709;28;20043;-58
2023/04/25 12:51:58;;;;;;;5.22;3.55;;;;;;;;;;5056333;28;20513;-58
2023/04/25 12:54:25;;;;;;;4.05;3.17;;;;;;;;;;5057664;28;20359;-58
2023/04/25 12:56:51;;;;;;;4.68;3.95;;;;;;;;;;5057437;28;20065;-58
2023/04/25 12:59:17;;;;;;;4.75;3.97;;;;;;;;;;5057393;28;20459;-58
2023/04/25 13:01:45;;;;;;;5.75;3.72;;;;;;;;;;5057299;28;20112;-58
2023/04/25 13:04:11;;;;;;;5.28;3.60;;;;;;;;;;5056605;28;20033;-58
2023/04/25 13:06:37;;;;;;;4.85;3.80;;;;;;;;;;5057196;28;20116;-58
2023/04/25 13:09:03;;;;;;;5.60;3.72;;;;;;;;;;5056602;28;20450;-58
2023/04/25 13:11:29;;;;;;;5.70;4.05;;;;;;;;;;5057108;28;20029;-58
2023/04/25 13:13:55;;;;;;;4.35;3.80;;;;;;;;;;5056758;28;20035;-59
2023/04/25 13:16:21;;;;;;;4.82;3.47;;;;;;;;;;5056746;28;20036;-58
2023/04/25 13:18:47;;;;;;;4.20;3.40;;;;;;;;;;5056783;28;20051;-58
2023/04/25 13:21:13;;;;;;;7.53;4.95;;;;;;;;;;5056384;28;20021;-58
2023/04/25 13:23:40;;;;;;;5.05;3.70;;;;;;;;;;5056308;28;20032;-58
2023/04/25 13:26:06;;;;;;;7.28;4.00;;;;;;;;;;5057133;28;20035;-58
2023/04/25 13:28:32;;;;;;;4.97;3.55;;;;;;;;;;5056450;28;20025;-58
2023/04/25 13:30:59;;;;;;;5.18;3.63;;;;;;;;;;5056237;28;20095;-58
2023/04/25 13:33:25;;;;;;;4.60;3.60;;;;;;;;;;5056089;28;20068;-58
2023/04/25 13:35:56;;;;;;;10.60;3.75;;;;;;;;;;5056090;28;20498;-58
2023/04/25 13:38:22;;;;;;;5.25;3.88;;;;;;;;;;5056065;28;20037;-58
2023/04/25 13:40:48;;;;;;;5.05;4.00;;;;;;;;;;5056450;28;20067;-58
2023/04/25 13:43:14;;;;;;;7.60;3.60;;;;;;;;;;5056195;28;20486;-58
2023/04/25 13:45:40;;;;;;;4.95;4.28;;;;;;;;;;5056167;28;20021;-58
2023/04/25 13:48:06;;;;;;;4.88;4.00;;;;;;;;;;5056292;28;20083;-58
2023/04/25 13:50:32;;;;;;;4.75;4.18;;;;;;;;;;5055431;28;20021;-59
2023/04/25 13:52:58;;;;;;;6.10;4.40;;;;;;;;;;5055892;28;20025;-58
2023/04/25 13:55:24;;;;;;;6.55;4.15;;;;;;;;;;5056056;28;20108;-58
2023/04/25 13:57:50;;;;;;;5.45;4.68;;;;;;;;;;5056023;28;20033;-59
2023/04/25 14:00:16;;;;;;;7.30;4.85;;;;;;;;;;5055242;28;20033;-59
2023/04/25 14:02:42;;;;;;;8.10;5.05;;;;;;;;;;5053902;28;20098;-59
2023/04/25 14:05:09;;;;;;;6.53;5.18;;;;;;;;;;5055477;28;20028;-59
2023/04/25 14:07:35;;;;;;;6.13;4.40;;;;;;;;;;5056044;28;20024;-58
2023/04/25 14:10:00;;;;;;;5.40;4.85;;;;;;;;;;5055667;28;20021;-59
2023/04/25 14:12:26;;;;;;;6.30;5.50;;;;;;;;;;5056236;28;20052;-59
2023/04/25 14:14:53;;;;;;;7.65;5.20;;;;;;;;;;5056228;28;20049;-57
2023/04/25 14:17:19;;;;;;;6.40;5.80;;;;;;;;;;5055653;28;20102;-57
2023/04/25 14:19:47;;;;;;;6.15;5.65;;;;;;;;;;5055899;28;20106;-59
2023/04/25 14:22:14;;;;;;;6.43;5.53;;;;;;;;;;5055154;28;20183;-59
2023/04/25 14:24:40;;;;;;;6.18;5.07;;;;;;;;;;5055155;28;20021;-58
2023/04/25 14:27:06;;;;;;;6.93;6.03;;;;;;;;;;5055792;28;20033;-58
2023/04/25 14:29:33;;;;;;;5.63;5.03;;;;;;;;;;5055507;28;20049;-57
2023/04/25 14:32:00;;;;;;;5.40;4.45;;;;;;;;;;5055759;28;20029;-58
2023/04/25 14:34:26;;;;;;;7.18;5.43;;;;;;;;;;5055037;28;20083;-58
2023/04/25 14:36:52;;;;;;;6.47;5.60;;;;;;;;;;5055434;28;20065;-57
2023/04/25 14:39:18;;;;;;;5.10;4.60;;;;;;;;;;5054964;28;20053;-58